createdAt,value
2023-04-15T00:01:06.008Z,8.56
2023-04-15T00:04:10.526Z,8.55
2023-04-15T00:07:16.369Z,8.66
2023-04-15T00:10:20.380Z,8.86
2023-04-15T00:13:25.020Z,8.37
2023-04-15T00:16:28.919Z,8.58
2023-04-15T00:19:33.469Z,8.75
2023-04-15T00:22:38.891Z,8.84
2023-04-15T00:25:42.453Z,8.57
2023-04-15T00:28:46.139Z,8.67
2023-04-15T00:31:51.126Z,8.55
2023-04-15T00:34:55.491Z,8.73
2023-04-15T00:38:00.770Z,8.80
2023-04-15T00:41:05.316Z,8.71
2023-04-15T00:44:09.380Z,8.70
2023-04-15T00:47:19.467Z,8.64
2023-04-15T00:50:23.799Z,8.63
2023-04-15T00:53:29.235Z,8.49
2023-04-15T00:56:36.260Z,8.59
2023-04-15T00:59:40.087Z,8.51
2023-04-15T01:02:44.079Z,8.52
2023-04-15T01:05:48.348Z,8.64
2023-04-15T01:08:54.159Z,8.49
2023-04-15T01:11:58.678Z,8.58
2023-04-15T01:15:03.976Z,8.76
2023-04-15T01:18:08.503Z,8.64
2023-04-15T01:21:14.715Z,8.67
2023-04-15T01:24:21.423Z,8.74
2023-04-15T01:27:27.116Z,8.88
2023-04-15T01:30:30.930Z,8.78
2023-04-15T01:33:34.349Z,8.71
2023-04-15T01:36:56.906Z,8.76
2023-04-15T01:40:00.507Z,8.44
2023-04-15T01:43:05.562Z,8.37
2023-04-15T01:46:10.281Z,8.55
2023-04-15T01:49:15.432Z,8.33
2023-04-15T01:52:20.125Z,8.12
2023-04-15T01:55:25.570Z,8.41
2023-04-15T01:58:31.729Z,8.26
2023-04-15T02:01:36.979Z,8.02
2023-04-15T02:04:41.688Z,7.99
2023-04-15T02:07:47.424Z,8.16
2023-04-15T02:10:52.841Z,7.87
2023-04-15T02:13:59.320Z,7.81
2023-04-15T02:17:07.480Z,7.72
2023-04-15T02:20:13.329Z,7.77
2023-04-15T02:23:18.325Z,7.77
2023-04-15T02:26:23.513Z,7.69
2023-04-15T02:29:30.009Z,7.61
2023-04-15T02:32:35.276Z,7.31
2023-04-15T02:35:44.284Z,7.26
2023-04-15T02:38:49.616Z,7.21
2023-04-15T02:41:55.361Z,7.34
2023-04-15T02:45:04.503Z,7.20
2023-04-15T02:48:12.361Z,7.08
2023-04-15T02:51:19.961Z,6.74
2023-04-15T02:54:25.955Z,6.51
2023-04-15T02:57:31.112Z,6.71
2023-04-15T03:00:42.773Z,7.04
2023-04-15T03:03:47.976Z,7.08
2023-04-15T03:06:52.669Z,7.32
2023-04-15T03:09:57.932Z,7.40
2023-04-15T03:13:03.153Z,7.47
2023-04-15T03:16:11.345Z,7.70
2023-04-15T03:19:16.691Z,7.90
2023-04-15T03:22:23.205Z,8.07
2023-04-15T03:30:15.058Z,8.15
2023-04-15T03:33:21.284Z,8.00
2023-04-15T03:36:27.331Z,8.05
2023-04-15T03:39:32.331Z,7.91
2023-04-15T03:42:37.345Z,8.19
2023-04-15T03:45:41.979Z,8.19
2023-04-15T03:48:48.338Z,7.98
2023-04-15T03:51:53.417Z,7.80
2023-04-15T03:54:59.544Z,8.00
2023-04-15T03:58:04.218Z,8.07
2023-04-15T04:01:09.627Z,8.21
2023-04-15T04:04:15.989Z,8.38
2023-04-15T04:07:21.011Z,8.12
2023-04-15T04:10:25.744Z,8.35
2023-04-15T04:13:30.775Z,8.40
2023-04-15T04:16:35.822Z,8.63
2023-04-15T04:19:42.694Z,8.74
2023-04-15T04:22:47.416Z,8.74
2023-04-15T04:25:52.706Z,8.91
2023-04-15T04:28:58.864Z,8.83
2023-04-15T04:32:04.237Z,8.95
2023-04-15T04:35:11.463Z,9.06
2023-04-15T04:38:17.107Z,9.05
2023-04-15T04:41:23.211Z,9.16
2023-04-15T04:44:28.279Z,9.26
2023-04-15T04:47:33.218Z,9.35
2023-04-15T04:50:39.688Z,9.43
2023-04-15T04:53:44.523Z,9.47
2023-04-15T04:56:49.663Z,9.52
2023-04-15T04:59:54.335Z,9.29
2023-04-15T05:02:59.805Z,9.46
2023-04-15T05:06:08.779Z,9.55
2023-04-15T05:09:13.826Z,9.07
2023-04-15T05:12:18.582Z,9.17
2023-04-15T05:15:23.956Z,9.44
2023-04-15T05:18:29.164Z,9.22
2023-04-15T05:21:37.578Z,9.54
2023-04-15T05:24:44.416Z,9.85
2023-04-15T05:27:49.650Z,10.21
2023-04-15T05:30:54.481Z,10.36
2023-04-15T05:33:59.911Z,10.79
2023-04-15T05:37:06.052Z,11.03
2023-04-15T05:40:11.731Z,11.19
2023-04-15T05:43:16.668Z,11.41
2023-04-15T05:46:22.821Z,11.75
2023-04-15T05:49:27.852Z,11.77
2023-04-15T05:52:35.908Z,12.17
2023-04-15T05:55:41.246Z,12.28
2023-04-15T05:58:47.532Z,12.32
2023-04-15T06:01:53.805Z,12.59
2023-04-15T06:05:01.462Z,12.56
2023-04-15T06:08:08.418Z,12.58
2023-04-15T06:11:13.949Z,12.25
2023-04-15T06:14:18.809Z,12.57
2023-04-15T06:17:24.360Z,12.82
2023-04-15T06:20:29.658Z,13.15
2023-04-15T06:23:37.875Z,13.47
2023-04-15T06:26:45.199Z,13.70
2023-04-15T06:29:50.302Z,14.19
2023-04-15T06:32:56.829Z,14.26
2023-04-15T06:36:02.512Z,14.74
2023-04-15T06:39:08.800Z,15.06
2023-04-15T06:42:14.000Z,15.15
2023-04-15T06:45:19.018Z,15.93
2023-04-15T06:48:24.469Z,17.27
2023-04-15T06:51:29.197Z,18.73
2023-04-15T06:54:35.839Z,19.55
2023-04-15T06:57:40.718Z,20.22
2023-04-15T07:00:46.233Z,20.59
2023-04-15T07:03:51.818Z,20.94
2023-04-15T07:07:01.543Z,21.58
2023-04-15T07:10:12.048Z,21.99
2023-04-15T07:13:21.360Z,21.60
2023-04-15T07:16:27.857Z,22.66
2023-04-15T07:19:35.056Z,23.11
2023-04-15T07:22:40.327Z,23.94
2023-04-15T07:25:47.746Z,22.74
2023-04-15T07:28:52.926Z,22.99
2023-04-15T07:31:57.916Z,23.48
2023-04-15T07:35:03.792Z,23.51
2023-04-15T07:38:08.881Z,24.18
2023-04-15T07:41:15.917Z,24.91
2023-04-15T07:44:20.968Z,25.04
2023-04-15T07:47:25.969Z,25.58
2023-04-15T07:50:30.950Z,25.73
2023-04-15T07:53:35.726Z,26.14
2023-04-15T07:56:42.162Z,26.40
2023-04-15T07:59:46.943Z,26.46
2023-04-15T08:02:53.334Z,26.16
2023-04-15T08:05:58.312Z,26.36
2023-04-15T08:09:03.636Z,24.16
2023-04-15T08:12:12.593Z,22.83
2023-04-15T08:15:18.163Z,22.01
2023-04-15T08:18:22.942Z,21.44
2023-04-15T08:21:30.825Z,20.79
2023-04-15T08:24:35.905Z,20.54
2023-04-15T08:27:45.777Z,20.14
2023-04-15T08:31:16.625Z,19.54
2023-04-15T08:34:22.237Z,19.24
2023-04-15T08:37:26.985Z,19.23
2023-04-15T08:40:42.740Z,19.17
2023-04-15T08:43:54.659Z,18.96
2023-04-15T08:47:02.943Z,19.03
2023-04-15T08:50:11.830Z,19.07
2023-04-15T08:53:17.245Z,18.87
2023-04-15T08:56:26.202Z,19.13
2023-04-15T08:59:33.920Z,18.88
2023-04-15T09:02:39.077Z,18.56
2023-04-15T09:05:44.506Z,18.60
2023-04-15T09:08:49.244Z,18.50
2023-04-15T09:11:55.234Z,18.36
2023-04-15T09:15:04.984Z,18.43
2023-04-15T09:18:13.247Z,18.08
2023-04-15T09:21:19.254Z,18.18
2023-04-15T09:24:28.215Z,17.89
2023-04-15T09:27:39.318Z,17.90
2023-04-15T09:30:49.748Z,17.65
2023-04-15T09:33:57.979Z,17.48
2023-04-15T09:37:03.556Z,17.48
2023-04-15T09:40:10.247Z,17.84
2023-04-15T09:43:17.405Z,17.91
2023-04-15T09:46:42.336Z,18.00
2023-04-15T09:55:04.043Z,18.19
2023-04-15T09:58:11.872Z,18.29
2023-04-15T10:01:17.184Z,18.23
2023-04-15T10:04:23.926Z,18.44
2023-04-15T10:07:29.735Z,18.39
2023-04-15T10:10:34.946Z,18.02
2023-04-15T10:13:40.856Z,17.88
2023-04-15T10:16:49.658Z,18.14
2023-04-15T10:19:56.268Z,18.15
2023-04-15T10:23:01.141Z,18.31
2023-04-15T10:26:07.042Z,18.26
2023-04-15T10:29:12.463Z,18.36
2023-04-15T10:32:20.184Z,18.32
2023-04-15T10:35:27.007Z,18.38
2023-04-15T10:38:36.844Z,18.50
2023-04-15T10:41:41.532Z,18.40
2023-04-15T10:44:49.958Z,18.22
2023-04-15T10:47:57.539Z,18.45
2023-04-15T10:51:05.269Z,18.33
2023-04-15T10:54:14.952Z,18.34
2023-04-15T10:57:24.881Z,18.29
2023-04-15T11:00:31.923Z,18.39
2023-04-15T11:03:43.873Z,18.46
2023-04-15T11:07:08.680Z,18.45
2023-04-15T11:11:02.935Z,18.46
2023-04-15T11:14:15.930Z,18.49
2023-04-15T11:17:30.042Z,18.59
2023-04-15T11:20:35.435Z,18.50
2023-04-15T11:23:44.332Z,18.65
2023-04-15T11:26:49.469Z,18.64
2023-04-15T11:29:56.579Z,18.66
2023-04-15T11:33:03.876Z,18.77
2023-04-15T11:36:09.127Z,18.90
2023-04-15T11:39:16.926Z,19.06
2023-04-15T11:42:21.533Z,19.18
2023-04-15T11:45:26.850Z,19.16
2023-04-15T11:48:33.885Z,19.30
2023-04-15T11:51:39.146Z,19.24
2023-04-15T11:54:44.012Z,19.31
2023-04-15T11:57:47.776Z,19.38
2023-04-15T12:00:54.149Z,19.37
2023-04-15T12:03:59.927Z,19.43
2023-04-15T12:07:06.653Z,19.61
2023-04-15T12:10:11.982Z,19.76
2023-04-15T12:13:16.387Z,19.84
2023-04-15T12:16:20.911Z,19.84
2023-04-15T12:19:26.679Z,19.97
2023-04-15T12:22:30.588Z,19.92
2023-04-15T12:25:38.809Z,19.94
2023-04-15T12:28:42.741Z,19.91
2023-04-15T12:31:54.062Z,19.42
2023-04-15T12:34:58.304Z,19.29
2023-04-15T12:38:01.708Z,19.24
2023-04-15T12:41:06.925Z,19.23
2023-04-15T12:44:10.395Z,19.13
2023-04-15T12:47:14.687Z,19.13
2023-04-15T12:50:18.628Z,19.27
2023-04-15T12:53:23.180Z,19.20
2023-04-15T12:56:28.095Z,19.17
2023-04-15T12:59:32.079Z,19.13
2023-04-15T13:02:35.596Z,19.00
2023-04-15T13:05:40.699Z,18.91
2023-04-15T13:08:57.267Z,18.89
2023-04-15T13:12:05.473Z,18.92
2023-04-15T13:15:11.433Z,18.91
2023-04-15T13:18:16.030Z,18.98
2023-04-15T13:21:21.589Z,18.93
2023-04-15T13:24:25.848Z,18.87
2023-04-15T13:27:31.570Z,18.91
2023-04-15T13:30:35.592Z,18.99
2023-04-15T13:33:39.174Z,19.00
2023-04-15T13:36:43.431Z,18.98
2023-04-15T13:39:50.504Z,19.13
2023-04-15T13:43:04.876Z,19.25
2023-04-15T13:46:08.689Z,19.22
2023-04-15T13:49:12.713Z,19.28
2023-04-15T13:52:16.282Z,19.40
2023-04-15T13:55:22.230Z,19.39
2023-04-15T13:58:30.637Z,19.53
2023-04-15T14:01:35.495Z,19.45
2023-04-15T14:04:39.276Z,19.29
2023-04-15T14:07:43.578Z,19.26
2023-04-15T14:10:48.667Z,19.29
2023-04-15T14:13:53.803Z,19.14
2023-04-15T14:16:58.848Z,19.00
2023-04-15T14:20:02.823Z,19.00
2023-04-15T14:23:06.342Z,18.86
2023-04-15T14:26:28.359Z,18.67
2023-04-15T14:29:33.203Z,18.64
2023-04-15T14:32:36.944Z,18.66
2023-04-15T14:35:40.607Z,18.49
2023-04-15T14:38:44.331Z,18.46
2023-04-15T14:41:48.192Z,18.24
2023-04-15T14:44:53.472Z,18.39
2023-04-15T14:47:57.859Z,18.45
2023-04-15T14:51:03.246Z,18.04
2023-04-15T14:54:06.905Z,18.05
2023-04-15T14:57:10.943Z,17.96
2023-04-15T15:00:16.496Z,18.10
2023-04-15T15:03:20.608Z,18.10
2023-04-15T15:06:24.343Z,18.10
2023-04-15T15:09:28.299Z,18.12
2023-04-15T15:12:31.854Z,18.18
2023-04-15T15:15:38.691Z,18.14
2023-04-15T15:18:42.564Z,18.18
2023-04-15T15:21:50.117Z,18.11
2023-04-15T15:24:53.703Z,18.09
2023-04-15T15:27:58.771Z,18.02
2023-04-15T15:31:04.579Z,17.98
2023-04-15T15:34:09.581Z,18.01
2023-04-15T15:37:15.831Z,18.01
2023-04-15T15:40:19.671Z,18.12
2023-04-15T15:43:23.125Z,18.14
2023-04-15T15:46:31.448Z,18.04
2023-04-15T15:49:35.127Z,18.03
2023-04-15T15:52:39.505Z,18.10
2023-04-15T15:55:42.947Z,18.13
2023-04-15T15:58:46.866Z,18.19
2023-04-15T16:01:52.507Z,18.15
2023-04-15T16:04:58.120Z,18.05
2023-04-15T16:08:01.888Z,17.92
2023-04-15T16:11:06.421Z,17.90
2023-04-15T16:14:11.035Z,17.83
2023-04-15T16:17:16.431Z,17.87
2023-04-15T16:20:21.456Z,17.90
2023-04-15T16:23:25.227Z,17.89
2023-04-15T16:26:28.913Z,17.93
2023-04-15T16:29:34.456Z,17.92
2023-04-15T16:32:39.383Z,17.90
2023-04-15T16:35:43.212Z,17.86
2023-04-15T16:38:48.829Z,17.88
2023-04-15T16:41:52.654Z,17.86
2023-04-15T16:44:56.681Z,17.84
2023-04-15T16:48:01.935Z,17.79
2023-04-15T16:51:05.907Z,17.68
2023-04-15T16:54:10.108Z,17.68
2023-04-15T16:57:13.718Z,17.61
2023-04-15T17:00:17.815Z,17.60
2023-04-15T17:03:23.422Z,17.53
2023-04-15T17:06:27.864Z,17.42
2023-04-15T17:09:31.356Z,17.27
2023-04-15T17:12:35.957Z,17.14
2023-04-15T17:15:40.727Z,17.01
2023-04-15T17:19:01.419Z,16.81
2023-04-15T17:22:06.419Z,16.60
2023-04-15T17:25:11.131Z,16.40
2023-04-15T17:28:19.990Z,16.23
2023-04-15T17:31:25.805Z,16.11
2023-04-15T17:34:51.558Z,16.11
2023-04-15T17:37:55.578Z,15.92
2023-04-15T17:41:18.948Z,15.75
2023-04-15T17:44:42.763Z,15.68
2023-04-15T17:48:06.262Z,15.52
2023-04-15T17:51:31.833Z,15.33
2023-04-15T17:55:03.787Z,15.12
2023-04-15T17:58:28.194Z,14.91
2023-04-15T18:01:51.972Z,14.90
2023-04-15T18:05:16.474Z,14.86
2023-04-15T18:08:42.621Z,14.66
2023-04-15T18:12:07.776Z,14.29
2023-04-15T18:15:31.619Z,14.28
2023-04-15T18:18:55.868Z,14.19
2023-04-15T18:22:00.246Z,14.05
2023-04-15T18:25:06.958Z,14.11
2023-04-15T18:28:10.579Z,13.97
2023-04-15T18:31:14.302Z,13.87
2023-04-15T18:34:17.916Z,13.81
2023-04-15T18:37:21.763Z,13.78
2023-04-15T18:40:26.712Z,13.84
2023-04-15T18:43:32.384Z,13.72
2023-04-15T18:46:36.216Z,13.45
2023-04-15T18:49:41.597Z,13.39
2023-04-15T18:52:45.103Z,13.30
2023-04-15T18:55:51.025Z,13.25
2023-04-15T18:59:28.105Z,12.76
2023-04-15T19:02:19.693Z,12.88
2023-04-15T19:05:25.429Z,12.98
2023-04-15T19:08:29.921Z,12.76
2023-04-15T19:11:34.875Z,12.65
2023-04-15T19:14:38.595Z,12.76
2023-04-15T19:17:42.693Z,12.87
2023-04-15T19:20:46.717Z,12.84
2023-04-15T19:23:50.303Z,12.76
2023-04-15T19:26:57.191Z,12.83
2023-04-15T19:30:01.967Z,12.69
2023-04-15T19:33:05.768Z,12.20
2023-04-15T19:36:09.385Z,11.92
2023-04-15T19:39:13.663Z,12.22
2023-04-15T19:42:18.509Z,12.47
2023-04-15T19:45:22.256Z,12.32
2023-04-15T19:48:26.500Z,12.29
2023-04-15T19:51:31.974Z,12.21
2023-04-15T19:54:35.540Z,12.26
2023-04-15T19:57:41.041Z,12.32
2023-04-15T20:00:44.645Z,12.37
2023-04-15T20:03:48.897Z,12.32
2023-04-15T20:06:52.599Z,12.28
2023-04-15T20:09:56.465Z,12.27
2023-04-15T20:13:01.259Z,12.28
2023-04-15T20:16:07.939Z,12.25
2023-04-15T20:19:12.417Z,12.22
2023-04-15T20:22:16.377Z,12.16
2023-04-15T20:25:20.070Z,12.14
2023-04-15T20:28:27.513Z,12.09
2023-04-15T20:31:31.181Z,11.97
2023-04-15T20:34:35.150Z,12.12
2023-04-15T20:37:40.468Z,12.06
2023-04-15T20:40:44.465Z,12.09
2023-04-15T20:43:49.254Z,11.92
2023-04-15T20:46:53.663Z,12.04
2023-04-15T20:49:57.048Z,11.98
2023-04-15T20:53:01.363Z,11.99
2023-04-15T20:56:06.679Z,11.98
2023-04-15T20:59:12.089Z,11.98
2023-04-15T21:02:15.890Z,11.92
2023-04-15T21:05:21.662Z,11.93
2023-04-15T21:08:55.113Z,12.00
2023-04-15T21:12:27.100Z,11.81
2023-04-15T21:15:31.931Z,11.95
2023-04-15T21:18:35.780Z,11.77
2023-04-15T21:21:39.306Z,11.86
2023-04-15T21:24:43.064Z,11.91
2023-04-15T21:27:46.752Z,11.90
2023-04-15T21:30:51.781Z,11.75
2023-04-15T21:33:55.361Z,11.58
2023-04-15T21:36:59.036Z,11.79
2023-04-15T21:40:02.455Z,11.71
2023-04-15T21:43:06.328Z,11.66
2023-04-15T21:46:22.248Z,11.69
2023-04-15T21:49:30.664Z,11.57
2023-04-15T21:52:34.222Z,11.62
2023-04-15T21:55:38.117Z,11.66
2023-04-15T21:58:43.880Z,11.45
2023-04-15T22:01:51.679Z,11.48
2023-04-15T22:04:55.282Z,11.16
2023-04-15T22:08:04.680Z,11.30
2023-04-15T22:11:08.081Z,11.33
2023-04-15T22:14:11.816Z,11.22
2023-04-15T22:17:16.618Z,10.65
2023-04-15T22:20:20.364Z,10.87
2023-04-15T22:23:23.865Z,10.73
2023-04-15T22:26:28.210Z,10.58
2023-04-15T22:29:32.427Z,10.88
2023-04-15T22:32:39.213Z,10.98
2023-04-15T22:35:42.799Z,10.79
2023-04-15T22:38:47.710Z,10.87
2023-04-15T22:41:53.133Z,10.67
2023-04-15T22:44:56.951Z,10.83
2023-04-15T22:48:02.627Z,10.75
2023-04-15T22:51:06.667Z,10.76
2023-04-15T22:54:10.157Z,10.40
2023-04-15T22:57:14.056Z,10.11
2023-04-15T23:00:17.636Z,10.05
2023-04-15T23:03:22.924Z,9.98
2023-04-15T23:06:27.141Z,10.12
2023-04-15T23:09:31.115Z,9.72
2023-04-15T23:12:34.700Z,9.87
2023-04-15T23:15:38.393Z,10.02
2023-04-15T23:18:43.196Z,9.97
2023-04-15T23:21:47.087Z,9.95
2023-04-15T23:24:50.475Z,9.90
2023-04-15T23:27:54.322Z,9.90
2023-04-15T23:31:00.437Z,9.73
2023-04-15T23:34:06.486Z,9.60
2023-04-15T23:37:10.189Z,9.49
2023-04-15T23:40:15.684Z,9.65
2023-04-15T23:43:19.208Z,9.60
2023-04-15T23:46:23.059Z,9.46
2023-04-15T23:49:27.925Z,9.56
2023-04-15T23:52:31.926Z,9.41
2023-04-15T23:55:35.954Z,9.35
2023-04-15T23:58:39.727Z,9.32
